< < Back
Terminal Aerodrome Forecast


Current Version              Previous Versions:   1  2  3  4  5  6  7  8  9  

Terminal Aerodrome Forecast

373
FTUS44 KBMX 091921 AAA
TAFBHM
TAF AMD
KBHM 091921Z 0919/1018 30014G25KT P6SM BKN050
     FM100200 30007KT P6SM SCT050
     FM101500 29011G18KT P6SM SKC=

Latest METAR

383
SAUS70 KWBC 092000 RRK
MTRBHM
METAR KBHM 091953Z 32013G20KT 10SM BKN060 03/M09 A2992 RMK AO2 SLP135
T00331089


USA.gov is the U.S. government's official web portal to all federal, state and local government web resources and services.